sensor_id;sensor_type;location;lat;lon;timestamp;P1;durP1;ratioP1;P2;durP2;ratioP2
56519;SDS011;42420;53.586;10.052;2023-03-01T00:01:34;27.73;;;12.45;;
56519;SDS011;42420;53.586;10.052;2023-03-01T00:06:30;23.88;;;12.73;;
56519;SDS011;42420;53.586;10.052;2023-03-01T00:11:29;24.58;;;12.00;;
56519;SDS011;42420;53.586;10.052;2023-03-01T00:16:28;24.83;;;11.75;;
56519;SDS011;42420;53.586;10.052;2023-03-01T00:21:27;22.50;;;11.43;;
56519;SDS011;42420;53.586;10.052;2023-03-01T00:26:24;24.00;;;12.18;;
56519;SDS011;42420;53.586;10.052;2023-03-01T00:31:22;23.00;;;11.57;;
56519;SDS011;42420;53.586;10.052;2023-03-01T00:36:19;24.45;;;12.18;;
56519;SDS011;42420;53.586;10.052;2023-03-01T00:41:17;30.27;;;13.30;;
56519;SDS011;42420;53.586;10.052;2023-03-01T00:46:15;24.75;;;12.32;;
56519;SDS011;42420;53.586;10.052;2023-03-01T00:51:14;23.15;;;11.93;;
56519;SDS011;42420;53.586;10.052;2023-03-01T00:56:15;21.98;;;11.23;;
56519;SDS011;42420;53.586;10.052;2023-03-01T01:01:16;22.13;;;12.48;;
56519;SDS011;42420;53.586;10.052;2023-03-01T01:06:22;26.05;;;11.02;;
56519;SDS011;42420;53.586;10.052;2023-03-01T01:11:20;24.70;;;11.60;;
56519;SDS011;42420;53.586;10.052;2023-03-01T01:16:19;24.00;;;11.57;;
56519;SDS011;42420;53.586;10.052;2023-03-01T01:21:17;24.67;;;12.65;;
56519;SDS011;42420;53.586;10.052;2023-03-01T01:31:12;28.40;;;12.48;;
56519;SDS011;42420;53.586;10.052;2023-03-01T01:36:09;25.60;;;11.63;;
56519;SDS011;42420;53.586;10.052;2023-03-01T01:41:05;23.65;;;12.15;;
56519;SDS011;42420;53.586;10.052;2023-03-01T01:51:00;22.75;;;11.18;;
56519;SDS011;42420;53.586;10.052;2023-03-01T01:55:58;23.08;;;10.30;;
56519;SDS011;42420;53.586;10.052;2023-03-01T02:00:56;23.65;;;12.38;;
56519;SDS011;42420;53.586;10.052;2023-03-01T02:11:28;20.42;;;10.32;;
56519;SDS011;42420;53.586;10.052;2023-03-01T02:16:26;24.73;;;10.73;;
56519;SDS011;42420;53.586;10.052;2023-03-01T02:21:29;24.85;;;11.88;;
56519;SDS011;42420;53.586;10.052;2023-03-01T02:26:33;23.65;;;10.63;;
56519;SDS011;42420;53.586;10.052;2023-03-01T02:31:33;25.08;;;11.63;;
56519;SDS011;42420;53.586;10.052;2023-03-01T02:36:40;22.00;;;10.18;;
56519;SDS011;42420;53.586;10.052;2023-03-01T02:41:41;23.30;;;11.43;;
56519;SDS011;42420;53.586;10.052;2023-03-01T02:46:43;18.15;;;10.18;;
56519;SDS011;42420;53.586;10.052;2023-03-01T02:52:28;22.05;;;11.20;;
56519;SDS011;42420;53.586;10.052;2023-03-01T02:57:01;22.02;;;10.52;;
56519;SDS011;42420;53.586;10.052;2023-03-01T03:01:58;21.50;;;10.45;;
56519;SDS011;42420;53.586;10.052;2023-03-01T03:06:56;21.58;;;12.05;;
56519;SDS011;42420;53.586;10.052;2023-03-01T03:11:52;22.00;;;11.77;;
56519;SDS011;42420;53.586;10.052;2023-03-01T03:16:49;19.35;;;10.10;;
56519;SDS011;42420;53.586;10.052;2023-03-01T03:21:46;21.88;;;10.73;;
56519;SDS011;42420;53.586;10.052;2023-03-01T03:26:42;23.40;;;11.38;;
56519;SDS011;42420;53.586;10.052;2023-03-01T03:31:39;22.92;;;11.20;;
56519;SDS011;42420;53.586;10.052;2023-03-01T03:36:35;20.88;;;10.63;;
56519;SDS011;42420;53.586;10.052;2023-03-01T03:41:34;23.23;;;11.00;;
56519;SDS011;42420;53.586;10.052;2023-03-01T03:46:31;20.77;;;10.50;;
56519;SDS011;42420;53.586;10.052;2023-03-01T03:51:28;21.08;;;9.25;;
56519;SDS011;42420;53.586;10.052;2023-03-01T03:56:24;11.90;;;6.57;;
56519;SDS011;42420;53.586;10.052;2023-03-01T04:01:24;18.30;;;8.75;;
56519;SDS011;42420;53.586;10.052;2023-03-01T04:06:20;23.35;;;8.48;;
56519;SDS011;42420;53.586;10.052;2023-03-01T04:11:17;9.50;;;5.35;;
56519;SDS011;42420;53.586;10.052;2023-03-01T04:16:22;14.65;;;7.43;;
56519;SDS011;42420;53.586;10.052;2023-03-01T04:21:19;14.23;;;6.82;;
56519;SDS011;42420;53.586;10.052;2023-03-01T04:26:16;17.75;;;6.68;;
56519;SDS011;42420;53.586;10.052;2023-03-01T04:31:13;14.85;;;5.97;;
56519;SDS011;42420;53.586;10.052;2023-03-01T04:36:15;14.55;;;6.18;;
56519;SDS011;42420;53.586;10.052;2023-03-01T04:41:12;10.63;;;5.47;;
56519;SDS011;42420;53.586;10.052;2023-03-01T04:46:11;12.32;;;5.97;;
56519;SDS011;42420;53.586;10.052;2023-03-01T04:51:11;17.70;;;7.07;;
56519;SDS011;42420;53.586;10.052;2023-03-01T04:56:12;11.38;;;5.57;;
56519;SDS011;42420;53.586;10.052;2023-03-01T05:01:17;12.23;;;5.88;;
56519;SDS011;42420;53.586;10.052;2023-03-01T05:06:15;11.00;;;5.38;;
56519;SDS011;42420;53.586;10.052;2023-03-01T05:11:12;9.90;;;5.20;;
56519;SDS011;42420;53.586;10.052;2023-03-01T05:16:09;10.60;;;3.70;;
56519;SDS011;42420;53.586;10.052;2023-03-01T05:21:12;10.00;;;4.43;;
56519;SDS011;42420;53.586;10.052;2023-03-01T05:26:14;7.47;;;3.60;;
56519;SDS011;42420;53.586;10.052;2023-03-01T05:31:29;7.15;;;3.70;;
56519;SDS011;42420;53.586;10.052;2023-03-01T05:36:27;11.30;;;4.30;;
56519;SDS011;42420;53.586;10.052;2023-03-01T05:41:23;10.25;;;4.43;;
56519;SDS011;42420;53.586;10.052;2023-03-01T05:46:20;8.73;;;4.30;;
56519;SDS011;42420;53.586;10.052;2023-03-01T05:51:16;13.63;;;4.30;;
56519;SDS011;42420;53.586;10.052;2023-03-01T08:09:21;12.98;;;7.15;;
56519;SDS011;42420;53.586;10.052;2023-03-01T09:27:45;17.10;;;10.00;;
56519;SDS011;42420;53.586;10.052;2023-03-01T09:32:34;14.95;;;9.23;;
56519;SDS011;42420;53.586;10.052;2023-03-01T09:37:32;18.70;;;9.98;;
56519;SDS011;42420;53.586;10.052;2023-03-01T09:42:29;17.25;;;9.43;;
56519;SDS011;42420;53.586;10.052;2023-03-01T09:47:28;17.90;;;8.95;;
56519;SDS011;42420;53.586;10.052;2023-03-01T09:52:34;17.17;;;9.88;;
56519;SDS011;42420;53.586;10.052;2023-03-01T10:18:28;14.27;;;7.57;;
56519;SDS011;42420;53.586;10.052;2023-03-01T10:23:29;14.20;;;7.78;;
56519;SDS011;42420;53.586;10.052;2023-03-01T10:34:15;14.90;;;7.13;;
56519;SDS011;42420;53.586;10.052;2023-03-01T10:39:34;14.32;;;7.97;;
56519;SDS011;42420;53.586;10.052;2023-03-01T10:44:48;14.50;;;8.43;;
56519;SDS011;42420;53.586;10.052;2023-03-01T10:56:20;13.30;;;7.70;;
56519;SDS011;42420;53.586;10.052;2023-03-01T11:01:42;13.57;;;6.95;;
56519;SDS011;42420;53.586;10.052;2023-03-01T11:07:00;16.83;;;7.40;;
56519;SDS011;42420;53.586;10.052;2023-03-01T11:12:29;14.05;;;7.63;;
56519;SDS011;42420;53.586;10.052;2023-03-01T11:17:33;16.88;;;8.32;;
56519;SDS011;42420;53.586;10.052;2023-03-01T11:23:14;12.77;;;7.75;;
56519;SDS011;42420;53.586;10.052;2023-03-01T11:28:16;14.02;;;7.75;;
56519;SDS011;42420;53.586;10.052;2023-03-01T11:33:19;14.25;;;7.50;;
56519;SDS011;42420;53.586;10.052;2023-03-01T11:38:25;14.82;;;7.72;;
56519;SDS011;42420;53.586;10.052;2023-03-01T12:10:36;11.63;;;6.35;;
56519;SDS011;42420;53.586;10.052;2023-03-01T12:38:59;9.55;;;5.13;;
56519;SDS011;42420;53.586;10.052;2023-03-01T13:28:35;12.98;;;6.00;;
56519;SDS011;42420;53.586;10.052;2023-03-01T13:38:47;9.27;;;5.35;;
56519;SDS011;42420;53.586;10.052;2023-03-01T13:43:44;11.68;;;4.97;;
56519;SDS011;42420;53.586;10.052;2023-03-01T13:48:44;11.52;;;5.70;;
56519;SDS011;42420;53.586;10.052;2023-03-01T13:53:49;9.90;;;5.43;;
56519;SDS011;42420;53.586;10.052;2023-03-01T13:58:58;7.80;;;4.60;;
56519;SDS011;42420;53.586;10.052;2023-03-01T14:03:58;9.50;;;4.88;;
56519;SDS011;42420;53.586;10.052;2023-03-01T14:09:05;12.07;;;4.82;;
56519;SDS011;42420;53.586;10.052;2023-03-01T14:19:15;11.55;;;4.22;;
56519;SDS011;42420;53.586;10.052;2023-03-01T16:28:49;10.25;;;5.25;;
56519;SDS011;42420;53.586;10.052;2023-03-01T16:33:45;11.80;;;5.90;;
56519;SDS011;42420;53.586;10.052;2023-03-01T16:38:45;10.82;;;6.03;;
56519;SDS011;42420;53.586;10.052;2023-03-01T16:48:39;11.82;;;6.78;;
56519;SDS011;42420;53.586;10.052;2023-03-01T17:00:14;14.80;;;7.18;;
56519;SDS011;42420;53.586;10.052;2023-03-01T17:05:11;11.82;;;6.72;;
56519;SDS011;42420;53.586;10.052;2023-03-01T17:15:06;13.23;;;7.05;;
56519;SDS011;42420;53.586;10.052;2023-03-01T17:25:00;12.32;;;5.22;;
56519;SDS011;42420;53.586;10.052;2023-03-01T17:29:56;8.98;;;4.93;;
56519;SDS011;42420;53.586;10.052;2023-03-01T17:34:53;9.57;;;5.22;;
56519;SDS011;42420;53.586;10.052;2023-03-01T17:39:50;8.60;;;5.32;;
56519;SDS011;42420;53.586;10.052;2023-03-01T17:44:46;9.80;;;5.40;;
56519;SDS011;42420;53.586;10.052;2023-03-01T17:49:44;8.95;;;5.53;;
56519;SDS011;42420;53.586;10.052;2023-03-01T18:26:25;12.60;;;8.43;;
56519;SDS011;42420;53.586;10.052;2023-03-01T18:39:16;15.33;;;9.50;;
56519;SDS011;42420;53.586;10.052;2023-03-01T18:44:56;15.55;;;9.98;;
56519;SDS011;42420;53.586;10.052;2023-03-01T19:09:03;21.08;;;13.18;;
56519;SDS011;42420;53.586;10.052;2023-03-01T19:27:38;21.08;;;14.35;;
56519;SDS011;42420;53.586;10.052;2023-03-01T20:28:20;28.90;;;16.10;;
56519;SDS011;42420;53.586;10.052;2023-03-01T21:12:27;22.58;;;14.40;;
56519;SDS011;42420;53.586;10.052;2023-03-01T21:31:08;26.90;;;15.68;;
56519;SDS011;42420;53.586;10.052;2023-03-01T21:36:07;21.38;;;12.90;;
56519;SDS011;42420;53.586;10.052;2023-03-01T21:41:05;22.17;;;13.23;;
56519;SDS011;42420;53.586;10.052;2023-03-01T21:46:03;24.67;;;14.32;;
56519;SDS011;42420;53.586;10.052;2023-03-01T21:51:03;22.00;;;12.90;;
56519;SDS011;42420;53.586;10.052;2023-03-01T21:56:00;25.15;;;14.63;;
56519;SDS011;42420;53.586;10.052;2023-03-01T22:00:57;31.77;;;14.50;;
56519;SDS011;42420;53.586;10.052;2023-03-01T22:06:05;22.55;;;13.50;;
56519;SDS011;42420;53.586;10.052;2023-03-01T22:11:01;20.73;;;12.73;;
56519;SDS011;42420;53.586;10.052;2023-03-01T22:15:58;23.10;;;12.95;;
56519;SDS011;42420;53.586;10.052;2023-03-01T22:20:55;21.35;;;12.18;;
56519;SDS011;42420;53.586;10.052;2023-03-01T22:25:52;20.38;;;12.75;;
56519;SDS011;42420;53.586;10.052;2023-03-01T22:30:48;20.17;;;12.33;;
56519;SDS011;42420;53.586;10.052;2023-03-01T22:35:44;23.33;;;12.67;;
56519;SDS011;42420;53.586;10.052;2023-03-01T22:40:41;24.77;;;12.50;;
56519;SDS011;42420;53.586;10.052;2023-03-01T22:45:38;22.08;;;12.52;;
56519;SDS011;42420;53.586;10.052;2023-03-01T22:50:34;23.23;;;11.82;;
56519;SDS011;42420;53.586;10.052;2023-03-01T22:55:30;22.30;;;12.82;;
56519;SDS011;42420;53.586;10.052;2023-03-01T23:00:27;22.90;;;12.23;;
56519;SDS011;42420;53.586;10.052;2023-03-01T23:05:24;20.05;;;11.75;;
56519;SDS011;42420;53.586;10.052;2023-03-01T23:10:20;19.75;;;11.63;;
56519;SDS011;42420;53.586;10.052;2023-03-01T23:15:16;20.87;;;11.93;;
56519;SDS011;42420;53.586;10.052;2023-03-01T23:20:13;19.20;;;11.40;;
56519;SDS011;42420;53.586;10.052;2023-03-01T23:25:10;22.50;;;10.70;;
56519;SDS011;42420;53.586;10.052;2023-03-01T23:30:08;25.42;;;11.15;;
56519;SDS011;42420;53.586;10.052;2023-03-01T23:40:03;17.75;;;8.88;;
56519;SDS011;42420;53.586;10.052;2023-03-01T23:45:01;17.20;;;9.65;;
56519;SDS011;42420;53.586;10.052;2023-03-01T23:49:58;19.25;;;9.23;;
56519;SDS011;42420;53.586;10.052;2023-03-01T23:54:54;15.50;;;8.32;;
56519;SDS011;42420;53.586;10.052;2023-03-01T23:59:51;17.77;;;8.30;;
